createdAt,value
2017-08-13T00:00:56.385Z,3.10
2017-08-13T00:03:23.340Z,2.90
2017-08-13T00:05:50.270Z,3.03
2017-08-13T00:08:17.225Z,4.50
2017-08-13T00:10:44.157Z,3.23
2017-08-13T00:13:11.116Z,2.87
2017-08-13T00:15:39.052Z,3.83
2017-08-13T00:18:05.999Z,3.33
2017-08-13T00:20:32.937Z,3.27
2017-08-13T00:22:59.889Z,3.20
2017-08-13T00:25:26.823Z,4.40
2017-08-13T00:27:53.805Z,2.53
2017-08-13T00:30:21.732Z,2.57
2017-08-13T00:32:49.430Z,3.67
2017-08-13T00:35:16.413Z,2.77
2017-08-13T00:37:43.351Z,3.83
2017-08-13T00:40:11.296Z,2.43
2017-08-13T00:42:38.237Z,2.53
2017-08-13T00:45:05.176Z,2.60
2017-08-13T00:47:32.104Z,2.70
2017-08-13T00:50:00.484Z,2.40
2017-08-13T00:52:28.884Z,2.60
2017-08-13T00:54:57.376Z,2.30
2017-08-13T00:57:25.738Z,2.33
2017-08-13T00:59:54.218Z,2.20
2017-08-13T01:02:21.154Z,2.77
2017-08-13T01:04:48.101Z,2.60
2017-08-13T01:07:15.029Z,2.73
2017-08-13T01:09:42.013Z,2.57
2017-08-13T01:12:08.940Z,2.87
2017-08-13T01:14:35.888Z,2.50
2017-08-13T01:17:02.848Z,3.10
2017-08-13T01:19:29.776Z,2.13
2017-08-13T01:21:56.730Z,2.10
2017-08-13T01:24:23.661Z,2.33
2017-08-13T01:26:50.617Z,3.03
2017-08-13T01:29:17.552Z,3.03
2017-08-13T01:31:44.502Z,2.63
2017-08-13T01:34:11.439Z,2.93
2017-08-13T01:36:38.419Z,3.33
2017-08-13T01:39:05.376Z,2.93
2017-08-13T01:41:32.301Z,2.30
2017-08-13T01:43:59.251Z,2.40
2017-08-13T01:46:26.189Z,3.00
2017-08-13T01:48:53.143Z,3.90
2017-08-13T01:51:20.072Z,2.53
2017-08-13T01:53:47.017Z,2.50
2017-08-13T01:56:14.049Z,2.80
2017-08-13T01:58:41.012Z,2.57
2017-08-13T02:01:07.952Z,3.70
2017-08-13T02:03:34.895Z,3.03
2017-08-13T02:06:01.825Z,2.90
2017-08-13T02:08:28.778Z,2.83
2017-08-13T02:10:55.717Z,2.27
2017-08-13T02:13:22.662Z,3.20
2017-08-13T02:15:49.597Z,2.87
2017-08-13T02:18:17.388Z,3.13
2017-08-13T02:20:44.326Z,2.30
2017-08-13T02:23:11.302Z,3.27
2017-08-13T02:25:38.223Z,2.63
2017-08-13T02:28:05.161Z,2.93
2017-08-13T02:30:32.108Z,3.60
2017-08-13T02:32:59.048Z,3.70
2017-08-13T02:35:26.009Z,3.03
2017-08-13T02:37:52.953Z,2.70
2017-08-13T02:40:20.883Z,2.63
2017-08-13T02:42:47.817Z,3.20
2017-08-13T02:45:14.770Z,2.97
2017-08-13T02:47:41.708Z,3.77
2017-08-13T02:50:08.664Z,2.70
2017-08-13T02:52:35.601Z,2.63
2017-08-13T02:55:02.554Z,4.80
2017-08-13T02:57:29.495Z,3.00
2017-08-13T02:59:56.481Z,3.00
2017-08-13T03:02:23.402Z,3.47
2017-08-13T03:04:51.367Z,2.97
2017-08-13T03:07:18.325Z,3.23
2017-08-13T03:09:45.253Z,3.20
2017-08-13T03:12:12.209Z,3.30
2017-08-13T03:14:39.136Z,3.10
2017-08-13T03:17:06.085Z,4.03
2017-08-13T03:19:33.017Z,3.40
2017-08-13T03:21:59.973Z,3.07
2017-08-13T03:24:26.899Z,2.80
2017-08-13T03:26:53.839Z,2.80
2017-08-13T03:29:20.773Z,3.17
2017-08-13T03:31:47.730Z,3.00
2017-08-13T03:34:14.664Z,2.87
2017-08-13T03:36:41.610Z,3.30
2017-08-13T03:39:08.546Z,2.67
2017-08-13T03:41:37.260Z,2.80
2017-08-13T03:44:04.206Z,2.80
2017-08-13T03:46:31.177Z,4.10
2017-08-13T03:48:58.157Z,2.97
2017-08-13T03:51:25.976Z,2.80
2017-08-13T03:53:52.931Z,2.80
2017-08-13T03:56:19.860Z,2.20
2017-08-13T03:58:46.817Z,2.80
2017-08-13T04:01:15.381Z,3.40
2017-08-13T04:03:42.340Z,3.70
2017-08-13T04:06:09.277Z,2.77
2017-08-13T04:08:36.256Z,2.80
2017-08-13T04:11:04.164Z,2.73
2017-08-13T04:13:31.105Z,3.07
2017-08-13T04:15:58.065Z,3.17
2017-08-13T04:18:25.942Z,3.13
2017-08-13T04:20:52.888Z,2.93
2017-08-13T04:23:19.846Z,4.27
2017-08-13T04:25:46.783Z,2.63
2017-08-13T04:28:13.732Z,3.73
2017-08-13T04:30:41.658Z,3.80
2017-08-13T04:33:08.592Z,3.30
2017-08-13T04:35:36.316Z,3.20
2017-08-13T04:38:03.336Z,3.00
2017-08-13T04:40:30.285Z,4.90
2017-08-13T04:42:57.222Z,2.93
2017-08-13T04:45:24.172Z,4.13
2017-08-13T04:47:51.104Z,4.07
2017-08-13T04:50:18.069Z,3.40
2017-08-13T04:52:45.016Z,3.13
2017-08-13T04:55:11.944Z,2.77
2017-08-13T04:57:38.892Z,3.57
2017-08-13T05:00:05.844Z,3.07
2017-08-13T05:02:32.781Z,3.20
2017-08-13T05:04:59.740Z,3.60
2017-08-13T05:07:26.681Z,3.53
2017-08-13T05:09:53.849Z,3.70
2017-08-13T05:12:20.781Z,3.50
2017-08-13T05:14:47.698Z,2.97
2017-08-13T05:17:14.645Z,2.97
2017-08-13T05:19:42.624Z,3.63
2017-08-13T05:22:10.597Z,3.50
2017-08-13T05:24:37.520Z,3.70
2017-08-13T05:27:05.408Z,3.50
2017-08-13T05:29:32.356Z,4.57
2017-08-13T05:31:59.836Z,2.40
2017-08-13T05:34:27.761Z,2.83
2017-08-13T05:36:54.719Z,2.73
2017-08-13T05:39:22.623Z,2.97
2017-08-13T05:41:49.560Z,2.83
2017-08-13T05:44:16.530Z,2.60
2017-08-13T05:46:44.241Z,1.70
2017-08-13T05:49:11.214Z,2.20
2017-08-13T05:51:38.164Z,2.63
2017-08-13T05:54:05.108Z,2.10
2017-08-13T05:56:32.050Z,2.20
2017-08-13T05:58:59.009Z,2.27
2017-08-13T06:01:25.950Z,2.73
2017-08-13T06:03:53.905Z,3.00
2017-08-13T06:06:20.839Z,3.10
2017-08-13T06:08:48.808Z,2.60
2017-08-13T06:11:15.756Z,2.20
2017-08-13T06:13:42.713Z,2.50
2017-08-13T06:16:10.622Z,2.90
2017-08-13T06:18:37.572Z,2.30
2017-08-13T06:21:04.509Z,2.50
2017-08-13T06:23:31.468Z,2.27
2017-08-13T06:25:58.402Z,2.60
2017-08-13T06:28:25.380Z,3.30
2017-08-13T06:30:52.314Z,2.13
2017-08-13T06:33:19.280Z,1.90
2017-08-13T06:35:46.307Z,2.23
2017-08-13T06:38:13.246Z,2.47
2017-08-13T06:40:41.104Z,3.47
2017-08-13T06:43:08.084Z,4.20
2017-08-13T06:45:35.021Z,2.43
2017-08-13T06:48:01.963Z,3.17
2017-08-13T06:50:28.906Z,2.30
2017-08-13T06:52:55.860Z,3.13
2017-08-13T06:55:22.797Z,2.00
2017-08-13T06:57:49.744Z,2.37
2017-08-13T07:00:16.677Z,2.57
2017-08-13T07:02:43.635Z,2.17
2017-08-13T07:05:10.569Z,2.63
2017-08-13T07:07:37.532Z,2.30
2017-08-13T07:10:04.479Z,1.97
2017-08-13T07:12:31.461Z,1.80
2017-08-13T07:14:59.172Z,2.30
2017-08-13T07:17:26.207Z,2.27
2017-08-13T07:19:53.144Z,2.30
2017-08-13T07:22:20.314Z,2.67
2017-08-13T07:24:47.246Z,2.20
2017-08-13T07:27:14.190Z,2.50
2017-08-13T07:29:41.150Z,2.70
2017-08-13T07:32:08.086Z,3.30
2017-08-13T07:34:35.022Z,2.60
2017-08-13T07:37:02.001Z,2.20
2017-08-13T07:39:28.939Z,2.30
2017-08-13T07:41:55.873Z,2.03
2017-08-13T07:44:22.807Z,2.43
2017-08-13T07:46:49.746Z,2.33
2017-08-13T07:49:16.707Z,2.67
2017-08-13T07:51:43.645Z,2.90
2017-08-13T07:54:10.591Z,3.47
2017-08-13T07:56:37.533Z,5.80
2017-08-13T07:59:04.484Z,4.70
2017-08-13T08:01:31.408Z,2.63
2017-08-13T08:03:58.380Z,2.20
2017-08-13T08:06:25.340Z,2.90
2017-08-13T08:08:52.276Z,2.43
2017-08-13T08:11:19.213Z,3.20
2017-08-13T08:13:46.146Z,2.63
2017-08-13T08:16:13.098Z,2.43
2017-08-13T08:18:40.046Z,2.27
2017-08-13T08:21:07.033Z,2.73
2017-08-13T08:23:33.980Z,1.90
2017-08-13T08:26:01.710Z,2.00
2017-08-13T08:28:30.670Z,1.70
2017-08-13T08:30:57.651Z,2.27
2017-08-13T08:33:24.584Z,2.07
2017-08-13T08:35:54.592Z,1.83
2017-08-13T08:38:21.544Z,1.97
2017-08-13T08:40:48.482Z,1.30
2017-08-13T08:43:15.469Z,2.13
2017-08-13T08:45:43.188Z,1.90
2017-08-13T08:48:10.145Z,1.63
2017-08-13T08:50:37.093Z,1.23
2017-08-13T08:53:04.038Z,1.60
2017-08-13T08:55:30.977Z,1.37
2017-08-13T08:57:57.928Z,1.00
2017-08-13T09:00:24.860Z,1.67
2017-08-13T09:02:51.818Z,1.73
2017-08-13T09:05:18.750Z,2.20
2017-08-13T09:07:45.721Z,1.50
2017-08-13T09:10:12.647Z,2.07
2017-08-13T09:12:39.589Z,1.80
2017-08-13T09:15:06.530Z,1.40
2017-08-13T09:17:33.486Z,2.20
2017-08-13T09:20:00.433Z,1.60
2017-08-13T09:22:27.392Z,2.20
2017-08-13T09:24:54.322Z,1.77
2017-08-13T09:27:21.284Z,2.07
2017-08-13T09:29:48.217Z,2.67
2017-08-13T09:32:15.177Z,1.80
2017-08-13T09:34:42.127Z,1.77
2017-08-13T09:37:09.869Z,1.70
2017-08-13T09:39:36.817Z,2.40
2017-08-13T09:42:03.784Z,2.00
2017-08-13T09:44:31.492Z,2.20
2017-08-13T09:46:58.535Z,1.90
2017-08-13T09:49:25.493Z,2.07
2017-08-13T09:51:52.433Z,2.37
2017-08-13T09:54:19.423Z,2.03
2017-08-13T09:56:47.167Z,2.17
2017-08-13T09:59:14.106Z,1.87
2017-08-13T10:01:41.065Z,1.37
2017-08-13T10:04:08.041Z,4.20
2017-08-13T10:06:34.986Z,1.50
2017-08-13T10:09:01.939Z,1.40
2017-08-13T10:11:28.873Z,1.47
2017-08-13T10:13:55.842Z,1.43
2017-08-13T10:16:22.797Z,1.20
2017-08-13T10:18:49.754Z,1.47
2017-08-13T10:21:16.744Z,2.00
2017-08-13T10:23:44.764Z,1.50
2017-08-13T10:26:12.513Z,1.40
2017-08-13T10:28:39.481Z,2.27
2017-08-13T10:31:08.320Z,2.10
2017-08-13T10:33:36.996Z,1.30
2017-08-13T10:36:05.683Z,1.43
2017-08-13T10:38:34.509Z,1.17
2017-08-13T10:41:03.205Z,1.43
2017-08-13T10:43:31.893Z,1.53
2017-08-13T10:46:00.593Z,0.90
2017-08-13T10:48:29.362Z,1.37
2017-08-13T10:50:58.056Z,1.40
2017-08-13T10:53:26.747Z,1.50
2017-08-13T10:55:55.436Z,1.50
2017-08-13T10:58:24.122Z,1.57
2017-08-13T11:00:52.829Z,1.73
2017-08-13T11:03:21.507Z,1.33
2017-08-13T11:05:50.220Z,1.50
2017-08-13T11:08:18.913Z,2.30
2017-08-13T11:10:47.583Z,1.60
2017-08-13T11:13:16.272Z,1.50
2017-08-13T11:15:44.976Z,0.90
2017-08-13T11:18:13.690Z,1.13
2017-08-13T11:20:42.370Z,1.20
2017-08-13T11:23:11.040Z,1.27
2017-08-13T11:25:39.756Z,1.40
2017-08-13T11:28:08.423Z,1.20
2017-08-13T11:30:37.079Z,1.30
2017-08-13T11:33:05.802Z,2.13
2017-08-13T11:35:34.489Z,1.63
2017-08-13T11:38:03.213Z,1.57
2017-08-13T11:40:31.879Z,2.00
2017-08-13T11:43:00.584Z,2.17
2017-08-13T11:45:30.369Z,1.67
2017-08-13T11:47:59.147Z,1.23
2017-08-13T11:50:27.834Z,2.30
2017-08-13T11:52:56.620Z,1.60
2017-08-13T11:55:25.288Z,1.60
2017-08-13T11:57:53.993Z,1.70
2017-08-13T12:00:22.671Z,2.23
2017-08-13T12:02:51.477Z,1.47
2017-08-13T12:05:20.148Z,2.73
2017-08-13T12:07:48.845Z,1.27
2017-08-13T12:10:17.525Z,1.73
2017-08-13T12:12:46.240Z,1.17
2017-08-13T12:15:14.923Z,1.70
2017-08-13T12:17:43.592Z,1.90
2017-08-13T12:20:12.276Z,1.17
2017-08-13T12:22:40.945Z,1.00
2017-08-13T12:25:09.718Z,1.83
2017-08-13T12:27:38.512Z,1.30
2017-08-13T12:30:07.321Z,1.40
2017-08-13T12:32:36.016Z,2.00
2017-08-13T12:35:04.783Z,1.57
2017-08-13T12:37:33.448Z,1.60
2017-08-13T12:40:02.132Z,1.40
2017-08-13T12:42:30.791Z,1.60
2017-08-13T12:44:59.483Z,2.60
2017-08-13T12:47:28.208Z,1.90
2017-08-13T12:49:56.989Z,1.97
2017-08-13T12:52:25.680Z,1.73
2017-08-13T12:54:54.622Z,1.80
2017-08-13T12:57:23.360Z,1.43
2017-08-13T12:59:52.034Z,1.00
2017-08-13T13:02:20.747Z,2.13
2017-08-13T13:04:49.431Z,1.27
2017-08-13T13:07:18.203Z,1.53
2017-08-13T13:09:47.102Z,1.23
2017-08-13T13:12:15.785Z,1.20
2017-08-13T13:14:44.461Z,1.27
2017-08-13T13:17:13.278Z,1.67
2017-08-13T13:19:42.049Z,1.33
2017-08-13T13:22:10.871Z,2.07
2017-08-13T13:24:39.548Z,2.23
2017-08-13T13:27:14.185Z,1.33
2017-08-13T13:29:44.875Z,1.60
2017-08-13T13:32:13.556Z,2.47
2017-08-13T13:34:42.234Z,2.07
2017-08-13T13:37:10.841Z,1.30
2017-08-13T13:39:39.621Z,1.13
2017-08-13T13:42:08.323Z,1.47
2017-08-13T13:44:37.016Z,1.33
2017-08-13T13:47:05.696Z,1.00
2017-08-13T13:49:35.309Z,1.37
2017-08-13T13:52:07.418Z,1.70
2017-08-13T13:54:36.241Z,2.10
2017-08-13T13:57:06.334Z,2.17
2017-08-13T13:59:36.240Z,1.80
2017-08-13T14:02:06.820Z,1.90
2017-08-13T14:04:37.017Z,1.30
2017-08-13T14:07:05.672Z,1.27
2017-08-13T14:09:35.840Z,0.97
2017-08-13T14:12:05.850Z,2.40
2017-08-13T14:14:35.365Z,1.73
2017-08-13T14:17:06.287Z,3.10
2017-08-13T14:19:36.274Z,2.33
2017-08-13T14:22:04.881Z,1.80
2017-08-13T14:24:33.480Z,1.97
2017-08-13T14:27:02.049Z,1.83
2017-08-13T14:29:30.577Z,1.73
2017-08-13T14:31:59.316Z,1.90
2017-08-13T14:34:29.355Z,1.87
2017-08-13T14:36:58.913Z,1.40
2017-08-13T14:39:29.969Z,1.20
2017-08-13T14:42:00.619Z,2.30
2017-08-13T14:44:30.120Z,1.53
2017-08-13T14:46:58.645Z,1.77
2017-08-13T14:49:27.364Z,1.63
2017-08-13T14:51:56.048Z,1.10
2017-08-13T14:54:24.764Z,0.77
2017-08-13T14:56:53.519Z,1.47
2017-08-13T14:59:22.305Z,1.20
2017-08-13T15:01:50.985Z,1.93
2017-08-13T15:04:19.676Z,0.87
2017-08-13T15:06:48.348Z,1.40
2017-08-13T15:09:17.268Z,0.93
2017-08-13T15:11:45.920Z,1.73
2017-08-13T15:14:14.630Z,1.30
2017-08-13T15:16:43.592Z,1.17
2017-08-13T15:19:12.301Z,1.03
2017-08-13T15:21:41.091Z,1.30
2017-08-13T15:24:09.763Z,1.40
2017-08-13T15:26:38.464Z,1.30
2017-08-13T15:29:07.169Z,0.90
2017-08-13T15:31:35.844Z,1.83
2017-08-13T15:34:04.527Z,2.00
2017-08-13T15:36:33.300Z,1.70
2017-08-13T15:39:02.105Z,1.30
2017-08-13T15:41:32.798Z,2.00
2017-08-13T15:44:01.444Z,1.90
2017-08-13T15:46:31.072Z,2.03
2017-08-13T15:48:59.852Z,1.80
2017-08-13T15:51:29.880Z,1.37
2017-08-13T15:53:58.660Z,1.50
2017-08-13T15:56:28.276Z,2.93
2017-08-13T15:58:58.000Z,1.70
2017-08-13T16:01:26.549Z,2.77
2017-08-13T16:03:55.273Z,1.70
2017-08-13T16:06:24.886Z,1.23
2017-08-13T16:08:53.561Z,2.77
2017-08-13T16:11:22.267Z,1.00
2017-08-13T16:13:51.884Z,1.20
2017-08-13T16:16:20.563Z,1.87
2017-08-13T16:18:49.201Z,0.90
2017-08-13T16:21:17.824Z,1.77
2017-08-13T16:23:46.511Z,0.90
2017-08-13T16:26:15.211Z,0.77
2017-08-13T16:28:43.900Z,1.07
2017-08-13T16:31:12.654Z,1.13
2017-08-13T16:33:41.483Z,1.00
2017-08-13T16:36:10.273Z,1.00
2017-08-13T16:38:38.953Z,1.10
2017-08-13T16:41:07.664Z,0.70
2017-08-13T16:43:36.432Z,1.20
2017-08-13T16:46:05.229Z,1.23
2017-08-13T16:48:34.016Z,1.30
2017-08-13T16:51:04.701Z,1.93
2017-08-13T16:53:33.376Z,1.20
2017-08-13T16:56:02.060Z,1.20
2017-08-13T16:58:30.749Z,0.83
2017-08-13T17:00:59.557Z,1.13
2017-08-13T17:03:28.328Z,1.37
2017-08-13T17:05:57.013Z,1.17
2017-08-13T17:08:25.811Z,1.27
2017-08-13T17:10:54.501Z,1.50
2017-08-13T17:13:23.210Z,1.10
2017-08-13T17:15:51.881Z,1.07
2017-08-13T17:18:20.593Z,1.50
2017-08-13T17:20:49.277Z,1.50
2017-08-13T17:23:18.001Z,1.90
2017-08-13T17:25:46.852Z,1.30
2017-08-13T17:28:15.520Z,1.60
2017-08-13T17:30:44.187Z,1.70
2017-08-13T17:33:12.889Z,1.63
2017-08-13T17:35:41.572Z,1.33
2017-08-13T17:38:10.264Z,1.80
2017-08-13T17:40:38.857Z,1.33
2017-08-13T17:43:08.407Z,1.80
2017-08-13T17:45:37.100Z,1.60
2017-08-13T17:48:05.865Z,2.00
2017-08-13T17:50:34.516Z,2.40
2017-08-13T17:53:03.190Z,2.67
2017-08-13T17:55:34.785Z,2.20
2017-08-13T17:58:03.422Z,1.87
2017-08-13T18:00:33.704Z,1.80
2017-08-13T18:03:02.273Z,1.13
2017-08-13T18:05:30.806Z,1.53
2017-08-13T18:07:59.440Z,1.73
2017-08-13T18:10:28.597Z,2.67
2017-08-13T18:12:57.222Z,1.90
2017-08-13T18:15:27.744Z,2.37
2017-08-13T18:17:56.335Z,2.10
2017-08-13T18:20:24.913Z,1.50
2017-08-13T18:22:53.492Z,1.90
2017-08-13T18:25:21.983Z,2.00
2017-08-13T18:27:50.504Z,1.40
2017-08-13T18:30:19.282Z,1.80
2017-08-13T18:32:47.744Z,1.73
2017-08-13T18:35:16.300Z,1.63
2017-08-13T18:37:46.493Z,1.83
2017-08-13T18:40:15.027Z,1.27
2017-08-13T18:42:43.756Z,1.53
2017-08-13T18:45:12.284Z,1.47
2017-08-13T18:47:45.042Z,1.63
2017-08-13T18:50:17.743Z,1.40
2017-08-13T18:52:48.526Z,1.50
2017-08-13T18:55:19.758Z,2.00
2017-08-13T18:57:54.332Z,1.70
2017-08-13T19:00:25.056Z,1.60
2017-08-13T19:02:57.824Z,1.50
2017-08-13T19:05:26.522Z,2.00
2017-08-13T19:07:59.084Z,1.30
2017-08-13T19:10:27.569Z,2.10
2017-08-13T19:12:55.944Z,1.63
2017-08-13T19:15:28.317Z,2.43
2017-08-13T19:17:56.800Z,1.90
2017-08-13T19:20:25.186Z,2.60
2017-08-13T19:23:00.006Z,2.53
2017-08-13T19:25:30.445Z,2.20
2017-08-13T19:27:58.860Z,2.10
2017-08-13T19:30:27.252Z,2.20
2017-08-13T19:32:55.658Z,1.53
2017-08-13T19:35:24.043Z,1.70
2017-08-13T19:37:52.460Z,2.37
2017-08-13T19:40:20.882Z,2.20
2017-08-13T19:42:49.256Z,2.50
2017-08-13T19:45:17.126Z,2.77
2017-08-13T19:47:44.057Z,2.37
2017-08-13T19:50:11.005Z,2.20
2017-08-13T19:52:38.880Z,1.73
2017-08-13T19:55:05.839Z,2.47
2017-08-13T19:57:32.808Z,2.60
2017-08-13T19:59:59.761Z,2.40
2017-08-13T20:02:26.697Z,2.90
2017-08-13T20:04:53.681Z,3.40
2017-08-13T20:07:21.405Z,2.60
2017-08-13T20:09:48.356Z,3.27
2017-08-13T20:12:15.337Z,2.40
2017-08-13T20:14:43.052Z,2.83
2017-08-13T20:17:09.989Z,3.07
2017-08-13T20:19:37.961Z,2.17
2017-08-13T20:22:04.892Z,2.57
2017-08-13T20:24:31.845Z,2.90
2017-08-13T20:26:58.772Z,2.53
2017-08-13T20:29:25.730Z,4.00
2017-08-13T20:31:52.671Z,2.60
2017-08-13T20:34:19.608Z,2.40
2017-08-13T20:36:46.542Z,2.53
2017-08-13T20:39:13.498Z,2.50
2017-08-13T20:41:40.449Z,2.53
2017-08-13T20:44:07.402Z,2.57
2017-08-13T20:46:34.333Z,2.77
2017-08-13T20:49:01.260Z,2.37
2017-08-13T20:51:28.212Z,2.00
2017-08-13T20:53:55.145Z,2.00
2017-08-13T20:56:22.083Z,2.00
2017-08-13T20:58:49.772Z,3.20
2017-08-13T21:01:16.740Z,2.47
2017-08-13T21:03:43.654Z,2.70
2017-08-13T21:06:10.624Z,1.97
2017-08-13T21:08:37.598Z,2.20
2017-08-13T21:11:04.546Z,2.63
2017-08-13T21:13:31.498Z,2.70
2017-08-13T21:15:59.203Z,2.23
2017-08-13T21:18:26.136Z,2.77
2017-08-13T21:20:53.105Z,2.40
2017-08-13T21:23:20.041Z,1.90
2017-08-13T21:25:47.010Z,2.53
2017-08-13T21:28:13.927Z,1.83
2017-08-13T21:30:40.877Z,2.80
2017-08-13T21:33:07.800Z,2.90
2017-08-13T21:35:34.764Z,2.67
2017-08-13T21:38:01.679Z,3.17
2017-08-13T21:40:29.387Z,2.23
2017-08-13T21:42:57.373Z,4.97
2017-08-13T21:45:24.376Z,3.30
2017-08-13T21:47:51.340Z,3.50
2017-08-13T21:50:18.299Z,3.03
2017-08-13T21:52:46.252Z,3.03
2017-08-13T21:55:14.182Z,3.10
2017-08-13T21:57:42.092Z,2.93
2017-08-13T22:00:20.301Z,3.03
2017-08-13T22:02:47.269Z,4.13
2017-08-13T22:05:14.205Z,4.50
2017-08-13T22:07:41.165Z,3.90
2017-08-13T22:10:08.119Z,3.40
2017-08-13T22:12:35.820Z,3.43
2017-08-13T22:15:02.797Z,3.27
2017-08-13T22:17:29.724Z,3.23
2017-08-13T22:19:56.669Z,3.30
2017-08-13T22:22:23.609Z,3.40
2017-08-13T22:24:50.539Z,3.17
2017-08-13T22:27:17.488Z,2.90
2017-08-13T22:29:44.441Z,2.93
2017-08-13T22:32:11.363Z,3.50
2017-08-13T22:34:38.275Z,3.00
2017-08-13T22:37:05.252Z,4.37
2017-08-13T22:39:32.558Z,2.80
2017-08-13T22:41:59.505Z,3.53
2017-08-13T22:44:27.415Z,2.93
2017-08-13T22:46:55.313Z,3.40
2017-08-13T22:49:22.233Z,2.77
2017-08-13T22:51:49.169Z,3.10
2017-08-13T22:54:16.905Z,3.47
2017-08-13T22:56:44.834Z,3.80
2017-08-13T22:59:11.785Z,3.83
2017-08-13T23:01:38.766Z,3.87
2017-08-13T23:04:06.462Z,3.40
2017-08-13T23:06:33.411Z,3.53
2017-08-13T23:09:00.373Z,3.37
2017-08-13T23:11:27.320Z,3.23
2017-08-13T23:13:54.302Z,3.73
2017-08-13T23:16:21.257Z,3.43
2017-08-13T23:18:48.217Z,3.77
2017-08-13T23:21:16.941Z,3.37
2017-08-13T23:23:43.885Z,3.20
2017-08-13T23:26:11.587Z,3.03
2017-08-13T23:28:38.536Z,3.50
2017-08-13T23:31:05.470Z,2.70
2017-08-13T23:33:32.418Z,3.00
2017-08-13T23:35:59.352Z,2.60
2017-08-13T23:38:26.301Z,3.23
2017-08-13T23:40:53.224Z,4.00
2017-08-13T23:43:20.953Z,3.27
2017-08-13T23:45:48.880Z,3.70
2017-08-13T23:48:15.816Z,3.40
2017-08-13T23:50:42.785Z,3.10
2017-08-13T23:53:09.720Z,4.13
2017-08-13T23:55:36.696Z,4.13
2017-08-13T23:58:04.387Z,3.83
